sensor_id;sensor_type;location;lat;lon;timestamp;pressure;altitude;pressure_sealevel;temperature;humidity
65173;BME280;51758;52.218;5.172;2022-08-04T00:00:37;101232.84;;;22.19;72.93
65173;BME280;51758;52.218;5.172;2022-08-04T00:03:11;101230.44;;;22.17;72.76
65173;BME280;51758;52.218;5.172;2022-08-04T00:05:43;101226.19;;;22.16;73.21
65173;BME280;51758;52.218;5.172;2022-08-04T00:08:15;101235.22;;;22.15;73.02
65173;BME280;51758;52.218;5.172;2022-08-04T00:10:47;101239.97;;;22.13;73.03
65173;BME280;51758;52.218;5.172;2022-08-04T00:13:15;101231.66;;;22.09;73.13
65173;BME280;51758;52.218;5.172;2022-08-04T00:15:43;101234.00;;;22.06;73.28
65173;BME280;51758;52.218;5.172;2022-08-04T00:18:14;101208.38;;;21.83;73.38
65173;BME280;51758;52.218;5.172;2022-08-04T00:20:41;101230.25;;;22.02;73.22
65173;BME280;51758;52.218;5.172;2022-08-04T00:23:09;101228.06;;;21.99;73.49
65173;BME280;51758;52.218;5.172;2022-08-04T00:25:37;101232.22;;;21.95;73.60
65173;BME280;51758;52.218;5.172;2022-08-04T00:28:05;101222.63;;;21.94;74.28
65173;BME280;51758;52.218;5.172;2022-08-04T00:30:33;101222.34;;;21.90;74.17
65173;BME280;51758;52.218;5.172;2022-08-04T00:33:01;101223.13;;;21.91;74.75
65173;BME280;51758;52.218;5.172;2022-08-04T00:35:30;101215.06;;;21.86;74.67
65173;BME280;51758;52.218;5.172;2022-08-04T00:37:58;101219.59;;;21.85;74.21
65173;BME280;51758;52.218;5.172;2022-08-04T00:40:28;101167.34;;;21.57;74.26
65173;BME280;51758;52.218;5.172;2022-08-04T00:43:00;101213.94;;;21.81;75.36
65173;BME280;51758;52.218;5.172;2022-08-04T00:45:39;101209.69;;;21.80;74.89
65173;BME280;51758;52.218;5.172;2022-08-04T00:48:32;101200.09;;;21.79;74.67
65173;BME280;51758;52.218;5.172;2022-08-04T00:51:08;101202.75;;;21.79;75.01
65173;BME280;51758;52.218;5.172;2022-08-04T00:53:39;101197.69;;;21.78;74.98
65173;BME280;51758;52.218;5.172;2022-08-04T00:56:21;101197.94;;;21.76;75.63
65173;BME280;51758;52.218;5.172;2022-08-04T00:58:57;101196.34;;;21.75;75.28
65173;BME280;51758;52.218;5.172;2022-08-04T01:01:43;101188.84;;;21.72;75.25
65173;BME280;51758;52.218;5.172;2022-08-04T01:04:15;101183.75;;;21.71;75.87
65173;BME280;51758;52.218;5.172;2022-08-04T01:07:05;101182.38;;;21.68;75.55
65173;BME280;51758;52.218;5.172;2022-08-04T01:09:41;101192.44;;;21.66;75.71
65173;BME280;51758;52.218;5.172;2022-08-04T01:12:16;101183.69;;;21.66;76.19
65173;BME280;51758;52.218;5.172;2022-08-04T01:14:52;101183.94;;;21.64;75.92
65173;BME280;51758;52.218;5.172;2022-08-04T01:17:27;101178.06;;;21.62;76.16
65173;BME280;51758;52.218;5.172;2022-08-04T01:20:00;101174.84;;;21.60;76.65
65173;BME280;51758;52.218;5.172;2022-08-04T01:22:55;101183.38;;;21.62;76.34
65173;BME280;51758;52.218;5.172;2022-08-04T01:25:36;101175.88;;;21.59;76.51
65173;BME280;51758;52.218;5.172;2022-08-04T01:28:14;101173.47;;;21.58;76.23
65173;BME280;51758;52.218;5.172;2022-08-04T01:30:47;101171.84;;;21.57;76.86
65173;BME280;51758;52.218;5.172;2022-08-04T01:33:16;101173.94;;;21.55;77.52
65173;BME280;51758;52.218;5.172;2022-08-04T01:35:46;101176.59;;;21.55;76.86
65173;BME280;51758;52.218;5.172;2022-08-04T01:38:16;101174.19;;;21.53;77.29
65173;BME280;51758;52.218;5.172;2022-08-04T01:40:47;101169.94;;;21.52;77.08
65173;BME280;51758;52.218;5.172;2022-08-04T01:43:17;101170.19;;;21.51;77.31
65173;BME280;51758;52.218;5.172;2022-08-04T01:45:48;101168.56;;;21.50;77.14
65173;BME280;51758;52.218;5.172;2022-08-04T01:48:16;101176.78;;;21.48;77.21
65173;BME280;51758;52.218;5.172;2022-08-04T01:50:49;101174.69;;;21.50;77.45
65173;BME280;51758;52.218;5.172;2022-08-04T01:53:18;101175.63;;;21.44;78.10
65173;BME280;51758;52.218;5.172;2022-08-04T01:55:46;101172.50;;;21.47;77.65
65173;BME280;51758;52.218;5.172;2022-08-04T01:58:20;101177.25;;;21.45;77.59
65173;BME280;51758;52.218;5.172;2022-08-04T02:00:55;101170.31;;;21.44;78.37
65173;BME280;51758;52.218;5.172;2022-08-04T02:03:23;101165.00;;;21.44;78.30
65173;BME280;51758;52.218;5.172;2022-08-04T02:06:15;101161.50;;;21.38;81.11
65173;BME280;51758;52.218;5.172;2022-08-04T02:08:47;101160.44;;;21.39;80.43
65173;BME280;51758;52.218;5.172;2022-08-04T02:11:17;101159.31;;;21.35;81.26
65173;BME280;51758;52.218;5.172;2022-08-04T02:13:48;101163.91;;;21.40;81.24
65173;BME280;51758;52.218;5.172;2022-08-04T02:16:24;101158.59;;;21.40;80.52
65173;BME280;51758;52.218;5.172;2022-08-04T02:18:56;101152.22;;;21.41;80.09
65173;BME280;51758;52.218;5.172;2022-08-04T02:21:26;101146.38;;;21.39;80.44
65173;BME280;51758;52.218;5.172;2022-08-04T02:24:10;101143.94;;;21.37;82.19
65173;BME280;51758;52.218;5.172;2022-08-04T02:26:41;101143.13;;;21.37;82.12
65173;BME280;51758;52.218;5.172;2022-08-04T02:29:10;101140.72;;;21.35;81.83
65173;BME280;51758;52.218;5.172;2022-08-04T02:31:42;101139.91;;;21.35;80.99
65173;BME280;51758;52.218;5.172;2022-08-04T02:34:14;101134.59;;;21.35;80.78
65173;BME280;51758;52.218;5.172;2022-08-04T02:36:42;101136.78;;;21.38;81.37
65173;BME280;51758;52.218;5.172;2022-08-04T02:39:11;101136.44;;;21.34;80.78
65173;BME280;51758;52.218;5.172;2022-08-04T02:41:39;101125.84;;;21.34;80.45
65173;BME280;51758;52.218;5.172;2022-08-04T02:44:07;101123.19;;;21.34;80.99
65173;BME280;51758;52.218;5.172;2022-08-04T02:46:36;101121.81;;;21.32;81.10
65173;BME280;51758;52.218;5.172;2022-08-04T02:49:05;101125.75;;;21.29;82.92
65173;BME280;51758;52.218;5.172;2022-08-04T02:51:34;101126.88;;;21.33;81.72
65173;BME280;51758;52.218;5.172;2022-08-04T02:54:04;101132.75;;;21.35;81.57
65173;BME280;51758;52.218;5.172;2022-08-04T02:56:32;101126.88;;;21.33;81.25
65173;BME280;51758;52.218;5.172;2022-08-04T02:59:03;101125.50;;;21.31;81.46
65173;BME280;51758;52.218;5.172;2022-08-04T03:01:32;101120.44;;;21.29;82.19
65173;BME280;51758;52.218;5.172;2022-08-04T03:09:56;101114.81;;;21.26;83.34
65173;BME280;51758;52.218;5.172;2022-08-04T03:12:35;101102.81;;;21.23;82.38
65173;BME280;51758;52.218;5.172;2022-08-04T03:15:17;101111.59;;;21.24;82.22
65173;BME280;51758;52.218;5.172;2022-08-04T03:18:07;101116.34;;;21.22;81.60
65173;BME280;51758;52.218;5.172;2022-08-04T03:23:23;101110.47;;;21.20;81.67
65173;BME280;51758;52.218;5.172;2022-08-04T03:32:22;101111.25;;;21.20;81.27
65173;BME280;51758;52.218;5.172;2022-08-04T03:35:02;101106.75;;;21.21;81.46
65173;BME280;51758;52.218;5.172;2022-08-04T03:37:45;101109.28;;;21.16;82.20
65173;BME280;51758;52.218;5.172;2022-08-04T03:40:25;101115.41;;;21.16;81.98
65173;BME280;51758;52.218;5.172;2022-08-04T03:46:17;101105.28;;;21.13;81.73
65173;BME280;51758;52.218;5.172;2022-08-04T03:49:02;101108.09;;;21.06;84.09
65173;BME280;51758;52.218;5.172;2022-08-04T03:51:37;101114.78;;;21.09;83.81
65173;BME280;51758;52.218;5.172;2022-08-04T03:54:32;101110.06;;;20.83;89.04
65173;BME280;51758;52.218;5.172;2022-08-04T03:57:09;101112.50;;;20.84;88.74
65173;BME280;51758;52.218;5.172;2022-08-04T03:59:48;101124.06;;;20.78;91.01
65173;BME280;51758;52.218;5.172;2022-08-04T04:05:28;101081.75;;;20.71;88.94
65173;BME280;51758;52.218;5.172;2022-08-04T04:11:20;101118.94;;;21.05;87.14
65173;BME280;51758;52.218;5.172;2022-08-04T04:14:01;101115.81;;;21.08;86.18
65173;BME280;51758;52.218;5.172;2022-08-04T04:16:37;101118.22;;;21.09;85.36
65173;BME280;51758;52.218;5.172;2022-08-04T04:19:28;101119.28;;;21.08;85.46
65173;BME280;51758;52.218;5.172;2022-08-04T04:22:09;101116.16;;;21.12;85.70
65173;BME280;51758;52.218;5.172;2022-08-04T04:27:42;101115.91;;;21.13;85.47
65173;BME280;51758;52.218;5.172;2022-08-04T04:30:18;101114.38;;;21.17;85.06
65173;BME280;51758;52.218;5.172;2022-08-04T04:35:36;101117.47;;;21.26;86.05
65173;BME280;51758;52.218;5.172;2022-08-04T04:38:12;101118.00;;;21.28;86.46
65173;BME280;51758;52.218;5.172;2022-08-04T04:40:44;101127.13;;;21.32;88.21
65173;BME280;51758;52.218;5.172;2022-08-04T04:43:29;101111.97;;;21.32;87.85
65173;BME280;51758;52.218;5.172;2022-08-04T04:46:20;101115.84;;;21.41;88.82
65173;BME280;51758;52.218;5.172;2022-08-04T04:48:54;101112.47;;;21.46;87.52
65173;BME280;51758;52.218;5.172;2022-08-04T04:51:27;101117.63;;;21.53;88.23
65173;BME280;51758;52.218;5.172;2022-08-04T04:53:57;101112.03;;;21.54;87.34
65173;BME280;51758;52.218;5.172;2022-08-04T04:56:32;101112.59;;;21.56;86.55
65173;BME280;51758;52.218;5.172;2022-08-04T04:59:03;101111.06;;;21.60;86.77
65173;BME280;51758;52.218;5.172;2022-08-04T05:01:41;101118.31;;;21.65;87.22
65173;BME280;51758;52.218;5.172;2022-08-04T05:07:11;101122.16;;;21.74;87.27
65173;BME280;51758;52.218;5.172;2022-08-04T05:09:54;101119.56;;;21.79;87.64
65173;BME280;51758;52.218;5.172;2022-08-04T05:15:48;101079.28;;;21.65;88.17
65173;BME280;51758;52.218;5.172;2022-08-04T05:18:18;101122.75;;;21.98;89.38
65173;BME280;51758;52.218;5.172;2022-08-04T05:20:49;101131.94;;;22.07;89.71
65173;BME280;51758;52.218;5.172;2022-08-04T05:23:18;101135.38;;;22.07;89.05
65173;BME280;51758;52.218;5.172;2022-08-04T05:25:50;101131.34;;;22.05;89.57
65173;BME280;51758;52.218;5.172;2022-08-04T05:28:25;101136.44;;;22.06;89.72
65173;BME280;51758;52.218;5.172;2022-08-04T05:30:56;101138.81;;;22.03;89.95
65173;BME280;51758;52.218;5.172;2022-08-04T05:33:26;101129.69;;;21.99;89.72
65173;BME280;51758;52.218;5.172;2022-08-04T05:35:58;101128.69;;;22.05;89.70
65173;BME280;51758;52.218;5.172;2022-08-04T05:38:48;101122.53;;;22.21;89.13
65173;BME280;51758;52.218;5.172;2022-08-04T05:41:18;101129.91;;;22.14;88.22
65173;BME280;51758;52.218;5.172;2022-08-04T05:43:47;101128.16;;;22.25;88.54
65173;BME280;51758;52.218;5.172;2022-08-04T05:46:15;101132.53;;;22.36;88.33
65173;BME280;51758;52.218;5.172;2022-08-04T05:48:43;101138.22;;;22.44;88.19
65173;BME280;51758;52.218;5.172;2022-08-04T05:51:11;101129.16;;;22.40;88.09
65173;BME280;51758;52.218;5.172;2022-08-04T05:53:40;101126.09;;;22.54;88.22
65173;BME280;51758;52.218;5.172;2022-08-04T05:56:09;101126.69;;;22.61;88.10
65173;BME280;51758;52.218;5.172;2022-08-04T05:58:39;101124.63;;;22.68;88.10
65173;BME280;51758;52.218;5.172;2022-08-04T06:01:07;101122.78;;;22.68;88.05
65173;BME280;51758;52.218;5.172;2022-08-04T06:03:36;101124.22;;;22.76;88.10
65173;BME280;51758;52.218;5.172;2022-08-04T06:06:04;101120.00;;;22.58;87.74
65173;BME280;51758;52.218;5.172;2022-08-04T06:08:33;101123.28;;;22.65;87.95
65173;BME280;51758;52.218;5.172;2022-08-04T06:11:02;101116.47;;;22.74;87.56
65173;BME280;51758;52.218;5.172;2022-08-04T06:13:32;101121.91;;;22.84;87.17
65173;BME280;51758;52.218;5.172;2022-08-04T06:16:17;101129.63;;;22.86;87.08
65173;BME280;51758;52.218;5.172;2022-08-04T06:18:57;101126.25;;;22.96;87.07
65173;BME280;51758;52.218;5.172;2022-08-04T06:21:46;101131.22;;;22.60;87.37
65173;BME280;51758;52.218;5.172;2022-08-04T06:24:16;101134.13;;;22.59;87.69
65173;BME280;51758;52.218;5.172;2022-08-04T06:26:44;101131.03;;;22.67;87.49
65173;BME280;51758;52.218;5.172;2022-08-04T06:29:14;101141.28;;;22.58;88.83
65173;BME280;51758;52.218;5.172;2022-08-04T06:31:51;101141.16;;;22.70;88.41
65173;BME280;51758;52.218;5.172;2022-08-04T06:34:47;101136.06;;;22.90;87.71
65173;BME280;51758;52.218;5.172;2022-08-04T06:37:15;101092.06;;;22.82;86.33
65173;BME280;51758;52.218;5.172;2022-08-04T06:40:03;101132.91;;;23.25;86.09
65173;BME280;51758;52.218;5.172;2022-08-04T06:42:52;101141.97;;;22.92;87.01
65173;BME280;51758;52.218;5.172;2022-08-04T06:45:19;101135.81;;;23.23;86.22
65173;BME280;51758;52.218;5.172;2022-08-04T06:47:49;101141.19;;;23.29;86.12
65173;BME280;51758;52.218;5.172;2022-08-04T06:50:17;101142.88;;;23.45;84.89
65173;BME280;51758;52.218;5.172;2022-08-04T06:53:05;101149.94;;;23.56;84.14
65173;BME280;51758;52.218;5.172;2022-08-04T06:55:33;101149.56;;;23.47;84.72
65173;BME280;51758;52.218;5.172;2022-08-04T06:58:01;101152.44;;;23.68;84.40
65173;BME280;51758;52.218;5.172;2022-08-04T07:00:29;101153.47;;;23.35;85.11
65173;BME280;51758;52.218;5.172;2022-08-04T07:02:58;101155.69;;;23.43;85.26
65173;BME280;51758;52.218;5.172;2022-08-04T07:05:26;101158.81;;;23.35;85.21
65173;BME280;51758;52.218;5.172;2022-08-04T07:07:54;101154.19;;;23.52;84.25
65173;BME280;51758;52.218;5.172;2022-08-04T07:10:24;101149.78;;;23.73;84.02
65173;BME280;51758;52.218;5.172;2022-08-04T07:12:51;101155.81;;;23.58;83.72
65173;BME280;51758;52.218;5.172;2022-08-04T07:15:19;101162.44;;;23.50;84.81
65173;BME280;51758;52.218;5.172;2022-08-04T07:17:47;101164.34;;;23.55;84.62
65173;BME280;51758;52.218;5.172;2022-08-04T07:20:19;101159.94;;;23.76;84.08
65173;BME280;51758;52.218;5.172;2022-08-04T07:23:01;101169.84;;;23.85;84.35
65173;BME280;51758;52.218;5.172;2022-08-04T07:25:29;101170.69;;;23.91;83.98
65173;BME280;51758;52.218;5.172;2022-08-04T07:28:17;101171.31;;;23.29;85.67
65173;BME280;51758;52.218;5.172;2022-08-04T07:30:44;101165.56;;;23.47;86.26
65173;BME280;51758;52.218;5.172;2022-08-04T07:33:13;101176.06;;;23.59;85.74
65173;BME280;51758;52.218;5.172;2022-08-04T07:35:42;101173.56;;;23.84;85.13
65173;BME280;51758;52.218;5.172;2022-08-04T07:38:30;101165.97;;;24.08;83.15
65173;BME280;51758;52.218;5.172;2022-08-04T07:40:57;101173.28;;;24.33;83.14
65173;BME280;51758;52.218;5.172;2022-08-04T07:43:25;101171.81;;;24.62;81.69
65173;BME280;51758;52.218;5.172;2022-08-04T07:45:53;101164.63;;;24.83;80.96
65173;BME280;51758;52.218;5.172;2022-08-04T07:48:20;101175.38;;;25.14;80.31
65173;BME280;51758;52.218;5.172;2022-08-04T07:50:51;101178.59;;;25.36;78.39
65173;BME280;51758;52.218;5.172;2022-08-04T07:53:19;101174.84;;;25.52;75.86
65173;BME280;51758;52.218;5.172;2022-08-04T07:56:07;101171.09;;;25.63;74.91
65173;BME280;51758;52.218;5.172;2022-08-04T07:58:34;101175.06;;;25.86;74.63
65173;BME280;51758;52.218;5.172;2022-08-04T08:01:02;101174.13;;;26.26;74.05
65173;BME280;51758;52.218;5.172;2022-08-04T08:03:29;101181.28;;;26.51;72.00
65173;BME280;51758;52.218;5.172;2022-08-04T08:05:59;101183.34;;;26.64;71.45
65173;BME280;51758;52.218;5.172;2022-08-04T08:08:46;101178.91;;;26.89;69.46
65173;BME280;51758;52.218;5.172;2022-08-04T08:11:14;101177.84;;;26.95;68.06
65173;BME280;51758;52.218;5.172;2022-08-04T08:13:42;101179.09;;;27.07;67.83
65173;BME280;51758;52.218;5.172;2022-08-04T08:16:10;101171.22;;;27.16;67.93
65173;BME280;51758;52.218;5.172;2022-08-04T08:18:38;101181.63;;;27.52;67.61
65173;BME280;51758;52.218;5.172;2022-08-04T08:21:06;101179.81;;;27.76;66.89
65173;BME280;51758;52.218;5.172;2022-08-04T08:23:34;101180.22;;;27.88;65.10
65173;BME280;51758;52.218;5.172;2022-08-04T08:26:02;101181.81;;;28.13;65.72
65173;BME280;51758;52.218;5.172;2022-08-04T08:28:31;101186.56;;;28.64;64.85
65173;BME280;51758;52.218;5.172;2022-08-04T08:30:59;101181.00;;;28.98;63.41
65173;BME280;51758;52.218;5.172;2022-08-04T08:33:32;101184.25;;;29.27;62.30
65173;BME280;51758;52.218;5.172;2022-08-04T08:36:02;101187.38;;;29.02;60.33
65173;BME280;51758;52.218;5.172;2022-08-04T08:38:38;101171.03;;;28.98;60.31
65173;BME280;51758;52.218;5.172;2022-08-04T08:41:15;101178.22;;;28.65;61.99
65173;BME280;51758;52.218;5.172;2022-08-04T08:43:51;101180.94;;;29.16;58.16
65173;BME280;51758;52.218;5.172;2022-08-04T08:46:51;101181.63;;;29.08;59.84
65173;BME280;51758;52.218;5.172;2022-08-04T08:52:31;101188.31;;;29.43;56.14
65173;BME280;51758;52.218;5.172;2022-08-04T08:55:31;101186.53;;;29.52;58.48
65173;BME280;51758;52.218;5.172;2022-08-04T08:58:06;101189.22;;;30.26;56.48
65173;BME280;51758;52.218;5.172;2022-08-04T09:00:41;101192.56;;;30.59;52.15
65173;BME280;51758;52.218;5.172;2022-08-04T09:03:34;101194.97;;;30.33;54.46
65173;BME280;51758;52.218;5.172;2022-08-04T09:06:08;101192.88;;;30.03;55.24
65173;BME280;51758;52.218;5.172;2022-08-04T09:08:49;101196.53;;;29.66;52.77
65173;BME280;51758;52.218;5.172;2022-08-04T09:11:23;101202.66;;;28.88;54.58
65173;BME280;51758;52.218;5.172;2022-08-04T09:13:53;101199.66;;;29.08;56.85
65173;BME280;51758;52.218;5.172;2022-08-04T09:16:23;101202.56;;;29.44;56.67
65173;BME280;51758;52.218;5.172;2022-08-04T09:18:59;101205.97;;;28.61;55.97
65173;BME280;51758;52.218;5.172;2022-08-04T09:21:29;101212.84;;;28.48;56.61
65173;BME280;51758;52.218;5.172;2022-08-04T09:23:59;101216.00;;;28.93;57.24
65173;BME280;51758;52.218;5.172;2022-08-04T09:26:53;101208.09;;;28.82;54.05
65173;BME280;51758;52.218;5.172;2022-08-04T09:29:27;101204.56;;;29.01;51.33
65173;BME280;51758;52.218;5.172;2022-08-04T09:31:59;101207.53;;;29.18;52.83
65173;BME280;51758;52.218;5.172;2022-08-04T09:34:33;101200.91;;;29.48;54.40
65173;BME280;51758;52.218;5.172;2022-08-04T09:37:06;101197.06;;;29.95;52.93
65173;BME280;51758;52.218;5.172;2022-08-04T09:39:48;101196.41;;;29.43;51.81
65173;BME280;51758;52.218;5.172;2022-08-04T09:42:24;101200.06;;;29.15;49.53
65173;BME280;51758;52.218;5.172;2022-08-04T09:44:57;101216.91;;;29.20;53.79
65173;BME280;51758;52.218;5.172;2022-08-04T09:47:33;101211.88;;;29.79;52.28
65173;BME280;51758;52.218;5.172;2022-08-04T09:50:10;101215.22;;;30.03;50.78
65173;BME280;51758;52.218;5.172;2022-08-04T09:52:43;101221.53;;;29.34;51.21
65173;BME280;51758;52.218;5.172;2022-08-04T09:55:16;101221.31;;;29.30;54.08
65173;BME280;51758;52.218;5.172;2022-08-04T09:57:50;101230.69;;;29.33;50.82
65173;BME280;51758;52.218;5.172;2022-08-04T10:00:19;101223.38;;;29.38;52.42
65173;BME280;51758;52.218;5.172;2022-08-04T10:03:06;101225.47;;;28.47;54.91
65173;BME280;51758;52.218;5.172;2022-08-04T10:05:44;101239.19;;;28.65;51.85
65173;BME280;51758;52.218;5.172;2022-08-04T10:08:17;101236.31;;;28.61;51.07
65173;BME280;51758;52.218;5.172;2022-08-04T10:10:50;101240.31;;;28.40;50.69
65173;BME280;51758;52.218;5.172;2022-08-04T10:13:31;101244.44;;;28.32;51.51
65173;BME280;51758;52.218;5.172;2022-08-04T10:16:05;101249.03;;;27.74;53.85
65173;BME280;51758;52.218;5.172;2022-08-04T10:18:38;101248.06;;;27.94;52.58
65173;BME280;51758;52.218;5.172;2022-08-04T10:21:10;101231.97;;;28.17;53.45
65173;BME280;51758;52.218;5.172;2022-08-04T10:23:47;101258.72;;;28.28;52.61
65173;BME280;51758;52.218;5.172;2022-08-04T10:26:32;101260.72;;;28.12;49.86
65173;BME280;51758;52.218;5.172;2022-08-04T10:29:04;101265.34;;;27.83;51.42
65173;BME280;51758;52.218;5.172;2022-08-04T10:31:34;101266.19;;;27.44;52.57
65173;BME280;51758;52.218;5.172;2022-08-04T10:34:05;101280.75;;;27.33;53.54
65173;BME280;51758;52.218;5.172;2022-08-04T10:36:38;101275.41;;;26.79;55.15
65173;BME280;51758;52.218;5.172;2022-08-04T10:39:09;101272.22;;;26.71;53.66
65173;BME280;51758;52.218;5.172;2022-08-04T10:42:03;101268.44;;;26.83;54.49
65173;BME280;51758;52.218;5.172;2022-08-04T10:44:36;101268.13;;;26.94;53.77
65173;BME280;51758;52.218;5.172;2022-08-04T10:47:08;101276.00;;;26.65;52.99
65173;BME280;51758;52.218;5.172;2022-08-04T10:49:41;101283.63;;;26.33;54.68
65173;BME280;51758;52.218;5.172;2022-08-04T10:52:10;101273.91;;;26.52;56.84
65173;BME280;51758;52.218;5.172;2022-08-04T10:54:42;101275.81;;;27.06;55.33
65173;BME280;51758;52.218;5.172;2022-08-04T10:57:16;101295.09;;;27.08;54.11
65173;BME280;51758;52.218;5.172;2022-08-04T10:59:48;101278.78;;;27.04;55.37
65173;BME280;51758;52.218;5.172;2022-08-04T11:02:35;101290.25;;;27.49;53.25
65173;BME280;51758;52.218;5.172;2022-08-04T11:05:04;101287.66;;;26.90;53.09
65173;BME280;51758;52.218;5.172;2022-08-04T11:07:36;101300.28;;;26.94;55.97
65173;BME280;51758;52.218;5.172;2022-08-04T11:10:06;101289.75;;;27.03;53.43
65173;BME280;51758;52.218;5.172;2022-08-04T11:12:34;101290.75;;;27.17;53.17
65173;BME280;51758;52.218;5.172;2022-08-04T11:15:03;101301.97;;;27.24;51.95
65173;BME280;51758;52.218;5.172;2022-08-04T11:17:34;101296.94;;;27.13;51.74
65173;BME280;51758;52.218;5.172;2022-08-04T11:20:04;101297.19;;;27.89;52.61
65173;BME280;51758;52.218;5.172;2022-08-04T11:22:58;101297.06;;;28.04;51.38
65173;BME280;51758;52.218;5.172;2022-08-04T11:25:31;101302.19;;;28.53;51.13
65173;BME280;51758;52.218;5.172;2022-08-04T11:28:02;101301.63;;;28.80;47.27
65173;BME280;51758;52.218;5.172;2022-08-04T11:30:34;101304.75;;;28.64;46.87
65173;BME280;51758;52.218;5.172;2022-08-04T11:33:04;101298.81;;;28.67;48.08
65173;BME280;51758;52.218;5.172;2022-08-04T11:35:34;101303.69;;;29.07;46.74
65173;BME280;51758;52.218;5.172;2022-08-04T11:38:06;101296.81;;;29.71;48.38
65173;BME280;51758;52.218;5.172;2022-08-04T11:40:36;101289.34;;;30.55;47.21
65173;BME280;51758;52.218;5.172;2022-08-04T11:43:05;101285.53;;;30.29;43.10
65173;BME280;51758;52.218;5.172;2022-08-04T11:45:37;101286.94;;;30.26;44.81
65173;BME280;51758;52.218;5.172;2022-08-04T11:48:05;101279.97;;;30.12;44.88
65173;BME280;51758;52.218;5.172;2022-08-04T11:50:36;101284.13;;;30.04;45.23
65173;BME280;51758;52.218;5.172;2022-08-04T11:53:08;101283.47;;;29.93;46.96
65173;BME280;51758;52.218;5.172;2022-08-04T11:55:38;101281.72;;;30.85;46.04
65173;BME280;51758;52.218;5.172;2022-08-04T11:58:26;101282.38;;;31.93;44.03
65173;BME280;51758;52.218;5.172;2022-08-04T12:00:57;101287.25;;;32.62;41.79
65173;BME280;51758;52.218;5.172;2022-08-04T12:03:31;101291.22;;;32.16;42.40
65173;BME280;51758;52.218;5.172;2022-08-04T12:06:08;101279.69;;;33.16;42.18
65173;BME280;51758;52.218;5.172;2022-08-04T12:08:40;101284.84;;;32.69;39.14
65173;BME280;51758;52.218;5.172;2022-08-04T12:11:14;101280.66;;;33.28;41.08
65173;BME280;51758;52.218;5.172;2022-08-04T12:13:44;101276.50;;;33.95;38.08
65173;BME280;51758;52.218;5.172;2022-08-04T12:16:16;101280.78;;;32.89;41.02
65173;BME280;51758;52.218;5.172;2022-08-04T12:18:44;101275.41;;;32.32;38.33
65173;BME280;51758;52.218;5.172;2022-08-04T12:21:17;101284.50;;;32.45;38.43
65173;BME280;51758;52.218;5.172;2022-08-04T12:23:52;101285.03;;;31.85;38.60
65173;BME280;51758;52.218;5.172;2022-08-04T12:26:27;101278.16;;;32.58;43.08
65173;BME280;51758;52.218;5.172;2022-08-04T12:28:57;101281.06;;;33.65;39.46
65173;BME280;51758;52.218;5.172;2022-08-04T12:31:44;101292.66;;;34.21;38.02
65173;BME280;51758;52.218;5.172;2022-08-04T12:34:14;101302.41;;;34.13;37.80
65173;BME280;51758;52.218;5.172;2022-08-04T12:36:44;101301.78;;;34.07;39.17
65173;BME280;51758;52.218;5.172;2022-08-04T12:39:14;101298.31;;;34.07;38.86
65173;BME280;51758;52.218;5.172;2022-08-04T12:41:44;101302.97;;;33.98;34.86
65173;BME280;51758;52.218;5.172;2022-08-04T12:44:14;101297.47;;;34.15;36.38
65173;BME280;51758;52.218;5.172;2022-08-04T12:47:04;101294.31;;;33.23;34.92
65173;BME280;51758;52.218;5.172;2022-08-04T12:49:54;101291.91;;;34.49;35.57
65173;BME280;51758;52.218;5.172;2022-08-04T12:52:27;101289.38;;;34.95;32.30
65173;BME280;51758;52.218;5.172;2022-08-04T12:55:15;101287.75;;;35.68;35.33
65173;BME280;51758;52.218;5.172;2022-08-04T12:57:43;101284.38;;;34.55;31.57
65173;BME280;51758;52.218;5.172;2022-08-04T13:00:15;101291.06;;;34.58;34.10
65173;BME280;51758;52.218;5.172;2022-08-04T13:03:00;101289.63;;;35.43;32.63
65173;BME280;51758;52.218;5.172;2022-08-04T13:05:35;101284.13;;;35.10;33.91
65173;BME280;51758;52.218;5.172;2022-08-04T13:08:03;101292.16;;;36.30;32.46
65173;BME280;51758;52.218;5.172;2022-08-04T13:10:35;101285.47;;;37.48;31.78
65173;BME280;51758;52.218;5.172;2022-08-04T13:13:03;101292.50;;;38.43;30.35
65173;BME280;51758;52.218;5.172;2022-08-04T13:15:31;101291.13;;;38.68;29.55
65173;BME280;51758;52.218;5.172;2022-08-04T13:18:20;101285.75;;;38.91;27.01
65173;BME280;51758;52.218;5.172;2022-08-04T13:20:54;101287.41;;;39.34;29.29
65173;BME280;51758;52.218;5.172;2022-08-04T13:23:24;101290.69;;;39.86;27.44
65173;BME280;51758;52.218;5.172;2022-08-04T13:26:12;101297.91;;;39.97;26.91
65173;BME280;51758;52.218;5.172;2022-08-04T13:29:01;101293.88;;;39.91;26.50
65173;BME280;51758;52.218;5.172;2022-08-04T13:31:42;101298.53;;;37.14;28.30
65173;BME280;51758;52.218;5.172;2022-08-04T13:34:19;101293.81;;;37.55;27.20
65173;BME280;51758;52.218;5.172;2022-08-04T13:36:47;101300.84;;;37.00;31.25
65173;BME280;51758;52.218;5.172;2022-08-04T13:39:16;101300.19;;;37.31;29.44
65173;BME280;51758;52.218;5.172;2022-08-04T13:41:45;101295.63;;;37.79;27.51
65173;BME280;51758;52.218;5.172;2022-08-04T13:44:25;101294.00;;;37.46;27.31
65173;BME280;51758;52.218;5.172;2022-08-04T13:46:54;101294.75;;;38.38;29.87
65173;BME280;51758;52.218;5.172;2022-08-04T13:49:24;101297.03;;;38.70;29.45
65173;BME280;51758;52.218;5.172;2022-08-04T13:52:11;101297.34;;;39.04;27.02
65173;BME280;51758;52.218;5.172;2022-08-04T13:54:39;101296.81;;;39.37;25.88
65173;BME280;51758;52.218;5.172;2022-08-04T13:57:10;101301.84;;;38.26;29.90
65173;BME280;51758;52.218;5.172;2022-08-04T13:59:39;101298.28;;;38.22;29.10
65173;BME280;51758;52.218;5.172;2022-08-04T14:02:08;101295.81;;;38.52;28.96
65173;BME280;51758;52.218;5.172;2022-08-04T14:04:48;101292.00;;;39.30;27.93